TimeMST,TemperatureF,Dew PointF,Humidity,Sea Level PressureIn,VisibilityMPH,Wind Direction,Wind SpeedMPH,Gust SpeedMPH,PrecipitationIn,Events,Conditions,WindDirDegrees,DateUTC
12:51 AM,48.9,21.9,35,30.11,10.0,NE,4.6,-,N/A,,Overcast,50,2013-03-06 07:51:00
1:51 AM,48.9,21.9,35,30.09,10.0,NE,5.8,-,N/A,,Overcast,50,2013-03-06 08:51:00
2:51 AM,48.0,21.9,36,30.06,10.0,NE,6.9,-,N/A,,Mostly Cloudy,40,2013-03-06 09:51:00
3:51 AM,48.9,21.9,35,30.05,10.0,NE,3.5,-,N/A,,Overcast,40,2013-03-06 10:51:00
4:51 AM,48.0,21.9,36,30.07,10.0,ESE,4.6,-,N/A,,Overcast,110,2013-03-06 11:51:00
5:51 AM,48.9,21.9,35,30.06,10.0,Calm,Calm,-,N/A,,Overcast,0,2013-03-06 12:51:00
6:51 AM,50.0,21.9,33,30.05,10.0,Calm,Calm,-,N/A,,Overcast,0,2013-03-06 13:51:00
7:51 AM,52.0,21.9,31,30.09,10.0,SSE,6.9,-,N/A,,Mostly Cloudy,150,2013-03-06 14:51:00
8:51 AM,55.9,21.9,27,30.10,10.0,Variable,5.8,-,N/A,,Mostly Cloudy,0,2013-03-06 15:51:00
9:51 AM,57.9,21.9,25,30.09,10.0,Variable,4.6,-,N/A,,Overcast,0,2013-03-06 16:51:00
10:51 AM,61.0,23.0,23,30.05,10.0,SSE,4.6,-,N/A,,Mostly Cloudy,150,2013-03-06 17:51:00
11:51 AM,66.0,23.0,20,30.00,10.0,Calm,Calm,-,N/A,,Mostly Cloudy,0,2013-03-06 18:51:00
12:51 PM,70.0,23.0,17,29.96,10.0,Calm,Calm,-,N/A,,Mostly Cloudy,0,2013-03-06 19:51:00
1:51 PM,72.0,21.9,15,29.91,10.0,Variable,4.6,-,N/A,,Mostly Cloudy,0,2013-03-06 20:51:00
2:51 PM,73.0,23.0,15,29.88,10.0,Calm,Calm,-,N/A,,Mostly Cloudy,0,2013-03-06 21:51:00
3:51 PM,73.9,23.0,15,29.86,10.0,SE,5.8,-,N/A,,Mostly Cloudy,130,2013-03-06 22:51:00
4:51 PM,75.0,23.0,14,29.84,10.0,Calm,Calm,-,N/A,,Mostly Cloudy,0,2013-03-06 23:51:00
5:51 PM,73.0,21.9,15,29.85,10.0,South,5.8,-,N/A,,Mostly Cloudy,170,2013-03-07 00:51:00
6:51 PM,69.1,23.0,18,29.86,10.0,SE,8.1,-,N/A,,Scattered Clouds,130,2013-03-07 01:51:00
7:51 PM,68.0,23.0,18,29.86,10.0,ESE,11.5,-,N/A,,Scattered Clouds,120,2013-03-07 02:51:00
8:51 PM,66.0,23.0,20,29.86,10.0,SE,10.4,-,N/A,,Scattered Clouds,130,2013-03-07 03:51:00
9:51 PM,64.9,21.9,19,29.87,10.0,SE,8.1,17.3,N/A,,Scattered Clouds,130,2013-03-07 04:51:00
10:51 PM,62.1,21.9,21,29.87,10.0,Calm,Calm,-,N/A,,Partly Cloudy,0,2013-03-07 05:51:00
11:51 PM,57.9,23.0,26,29.86,10.0,Calm,Calm,-,N/A,,Scattered Clouds,0,2013-03-07 06:51:00